createdAt,value
2023-09-28T00:03:24.633Z,77.57
2023-09-28T00:07:25.007Z,77.20
2023-09-28T00:11:25.351Z,76.96
2023-09-28T00:15:28.182Z,76.96
2023-09-28T00:19:31.724Z,77.37
2023-09-28T00:23:33.394Z,77.04
2023-09-28T00:27:33.833Z,76.74
2023-09-28T00:31:34.409Z,75.41
2023-09-28T00:35:37.280Z,75.10
2023-09-28T00:39:34.980Z,75.74
2023-09-28T00:43:36.132Z,76.25
2023-09-28T00:47:36.804Z,75.87
2023-09-28T00:51:40.684Z,76.70
2023-09-28T00:55:41.993Z,76.48
2023-09-28T00:59:42.274Z,76.05
2023-09-28T01:03:42.730Z,75.44
2023-09-28T01:07:45.585Z,75.93
2023-09-28T01:11:46.647Z,75.01
2023-09-28T01:15:50.270Z,75.12
2023-09-28T01:19:50.518Z,75.16
2023-09-28T01:23:53.715Z,76.12
2023-09-28T01:27:54.091Z,76.98
2023-09-28T01:31:54.790Z,76.17
2023-09-28T01:35:55.302Z,76.36
2023-09-28T01:39:58.131Z,76.96
2023-09-28T01:43:58.449Z,76.23
2023-09-28T01:47:58.770Z,76.29
2023-09-28T01:51:59.048Z,76.41
2023-09-28T01:56:03.917Z,75.98
2023-09-28T02:00:06.666Z,76.13
2023-09-28T02:04:08.608Z,75.98
2023-09-28T02:08:10.678Z,76.17
2023-09-28T02:12:14.218Z,75.48
2023-09-28T02:16:15.485Z,75.23
2023-09-28T02:20:20.748Z,75.29
2023-09-28T02:24:21.776Z,74.67
2023-09-28T02:28:24.623Z,74.67
2023-09-28T02:32:25.013Z,74.96
2023-09-28T02:36:25.273Z,75.15
2023-09-28T02:40:25.570Z,75.30
2023-09-28T02:44:28.415Z,75.30
2023-09-28T02:48:28.701Z,75.15
2023-09-28T02:52:28.974Z,75.06
2023-09-28T02:56:29.236Z,75.95
2023-09-28T03:00:34.358Z,77.45
2023-09-28T03:04:36.296Z,76.87
2023-09-28T03:08:37.187Z,76.98
2023-09-28T03:12:37.572Z,77.98
2023-09-28T03:16:40.977Z,78.03
2023-09-28T03:20:44.352Z,79.07
2023-09-28T03:24:45.193Z,79.09
2023-09-28T03:28:45.626Z,79.29
2023-09-28T03:32:50.769Z,80.23
2023-09-28T03:36:51.272Z,80.10
2023-09-28T03:40:51.749Z,79.91
2023-09-28T03:44:52.000Z,79.81
2023-09-28T03:48:55.067Z,79.84
2023-09-28T03:52:56.444Z,80.08
2023-09-28T03:56:56.783Z,79.60
2023-09-28T04:00:58.687Z,79.69
2023-09-28T04:05:01.687Z,80.38
2023-09-28T04:09:02.141Z,79.72
2023-09-28T04:13:02.506Z,80.02
2023-09-28T04:17:02.863Z,81.24
2023-09-28T04:21:05.738Z,81.01
2023-09-28T04:25:07.135Z,81.77
2023-09-28T04:29:07.531Z,80.99
2023-09-28T04:33:08.782Z,80.78
2023-09-28T04:37:11.938Z,80.83
2023-09-28T04:41:12.767Z,80.85
2023-09-28T04:45:14.031Z,81.26
2023-09-28T04:49:14.311Z,80.74
2023-09-28T04:53:17.743Z,81.27
2023-09-28T04:57:18.076Z,80.71
2023-09-28T05:01:18.851Z,80.58
2023-09-28T05:05:20.098Z,81.08
2023-09-28T05:09:23.171Z,80.56
2023-09-28T05:13:24.321Z,79.92
2023-09-28T05:17:24.817Z,80.60
2023-09-28T05:21:25.184Z,81.20
2023-09-28T05:25:28.345Z,81.34
2023-09-28T05:29:31.370Z,82.00
2023-09-28T05:33:31.812Z,80.84
2023-09-28T05:37:32.039Z,80.94
2023-09-28T05:41:34.877Z,81.05
2023-09-28T05:45:35.362Z,81.56
2023-09-28T05:49:35.849Z,82.11
2023-09-28T05:53:36.124Z,82.34
2023-09-28T05:57:38.995Z,82.40
2023-09-28T06:01:40.224Z,82.66
2023-09-28T06:05:40.544Z,82.55
2023-09-28T06:09:40.893Z,81.17
2023-09-28T06:17:50.468Z,81.17
2023-09-28T06:21:51.185Z,80.05
2023-09-28T06:25:51.609Z,78.86
2023-09-28T06:29:55.028Z,79.23
2023-09-28T06:33:55.801Z,79.63
2023-09-28T06:37:56.347Z,79.42
2023-09-28T06:42:02.722Z,78.12
2023-09-28T06:46:11.946Z,76.97
2023-09-28T06:50:13.865Z,77.22
2023-09-28T06:54:14.380Z,77.92
2023-09-28T06:58:15.938Z,78.17
2023-09-28T07:02:18.839Z,77.99
2023-09-28T07:06:19.585Z,77.68
2023-09-28T07:10:20.159Z,77.36
2023-09-28T07:14:20.486Z,75.40
2023-09-28T07:18:23.384Z,77.51
2023-09-28T07:22:24.235Z,76.44
2023-09-28T07:26:24.574Z,77.36
2023-09-28T07:30:26.934Z,77.74
2023-09-28T07:34:29.861Z,77.45
2023-09-28T07:38:30.227Z,77.06
2023-09-28T07:42:30.504Z,75.17
2023-09-28T07:46:30.804Z,73.82
2023-09-28T07:50:33.974Z,74.43
2023-09-28T07:54:34.330Z,72.96
2023-09-28T07:58:35.212Z,70.41
2023-09-28T08:02:35.646Z,69.69
2023-09-28T08:06:38.705Z,69.40
2023-09-28T08:10:38.984Z,69.49
2023-09-28T08:14:39.446Z,68.52
2023-09-28T08:18:39.775Z,67.12
2023-09-28T08:22:42.724Z,67.35
2023-09-28T08:26:42.960Z,68.21
2023-09-28T08:30:43.417Z,67.03
2023-09-28T08:34:43.709Z,66.08
2023-09-28T08:38:46.689Z,67.88
2023-09-28T08:42:48.834Z,68.53
2023-09-28T08:46:51.695Z,68.91
2023-09-28T08:51:13.867Z,66.84
2023-09-28T08:55:18.323Z,65.37
2023-09-28T08:59:21.192Z,65.52
2023-09-28T09:03:25.915Z,62.11
2023-09-28T09:07:27.952Z,62.38
2023-09-28T09:11:35.050Z,65.68
2023-09-28T09:15:37.631Z,63.98
2023-09-28T09:19:38.122Z,61.76
2023-09-28T09:23:39.153Z,59.94
2023-09-28T09:27:42.165Z,56.87
2023-09-28T09:31:44.606Z,56.30
2023-09-28T09:35:45.235Z,54.88
2023-09-28T09:39:46.163Z,54.26
2023-09-28T09:43:50.700Z,53.66
2023-09-28T09:47:53.171Z,55.16
2023-09-28T09:51:53.791Z,53.53
2023-09-28T09:56:00.342Z,51.31
2023-09-28T10:00:07.648Z,50.35
2023-09-28T10:04:14.031Z,49.75
2023-09-28T10:08:15.714Z,46.78
2023-09-28T10:12:17.131Z,46.69
2023-09-28T10:16:22.945Z,44.58
2023-09-28T10:20:25.335Z,46.32
2023-09-28T10:24:36.370Z,44.69
2023-09-28T10:28:37.488Z,43.68
2023-09-28T10:32:43.538Z,42.32
2023-09-28T10:36:43.920Z,42.22
2023-09-28T10:40:51.289Z,40.56
2023-09-28T10:44:54.540Z,38.68
2023-09-28T10:49:02.332Z,39.64
2023-09-28T10:53:02.713Z,37.35
2023-09-28T10:57:03.965Z,36.65
2023-09-28T11:01:08.571Z,37.90
2023-09-28T11:05:15.384Z,34.79
2023-09-28T11:09:17.652Z,35.59
2023-09-28T11:13:18.118Z,35.33
2023-09-28T11:17:18.461Z,34.94
2023-09-28T11:21:23.130Z,33.69
2023-09-28T11:25:43.221Z,31.19
2023-09-28T11:29:45.329Z,31.00
2023-09-28T11:33:49.213Z,29.47
2023-09-28T11:37:52.478Z,29.41
2023-09-28T11:42:00.868Z,28.64
2023-09-28T11:46:05.334Z,28.50
2023-09-28T11:50:10.140Z,29.64
2023-09-28T11:54:16.021Z,30.56
2023-09-28T11:58:17.215Z,31.65
2023-09-28T12:02:19.710Z,31.19
2023-09-28T12:06:21.952Z,31.73
2023-09-28T12:10:24.999Z,31.06
2023-09-28T12:14:25.437Z,30.77
2023-09-28T12:18:26.059Z,31.34
2023-09-28T12:22:26.418Z,29.77
2023-09-28T12:26:29.407Z,29.06
2023-09-28T12:30:31.494Z,28.70
2023-09-28T12:34:32.230Z,27.90
2023-09-28T12:38:32.944Z,27.25
2023-09-28T12:42:36.110Z,26.17
2023-09-28T12:46:37.197Z,27.27
2023-09-28T12:50:39.694Z,28.04
2023-09-28T12:54:40.041Z,27.08
2023-09-28T12:58:44.052Z,27.48
2023-09-28T13:02:44.906Z,29.25
2023-09-28T13:06:45.592Z,28.17
2023-09-28T13:10:46.059Z,29.04
2023-09-28T13:14:48.999Z,29.04
2023-09-28T13:18:49.333Z,28.80
2023-09-28T13:22:51.282Z,28.80
2023-09-28T13:26:51.851Z,29.60
2023-09-28T13:30:55.423Z,29.44
2023-09-28T13:34:56.045Z,28.61
2023-09-28T13:38:56.288Z,29.44
2023-09-28T13:42:58.241Z,29.25
2023-09-28T13:47:02.096Z,28.05
2023-09-28T13:51:02.416Z,27.34
2023-09-28T13:55:02.789Z,28.84
2023-09-28T13:59:06.710Z,29.83
2023-09-28T14:03:10.437Z,30.35
2023-09-28T14:07:11.104Z,29.62
2023-09-28T14:11:14.279Z,29.66
2023-09-28T14:15:14.769Z,29.84
2023-09-28T14:19:17.875Z,30.49
2023-09-28T14:23:18.434Z,30.19
2023-09-28T14:27:18.717Z,30.58
2023-09-28T14:31:19.211Z,30.22
2023-09-28T14:35:25.565Z,29.79
2023-09-28T14:39:25.871Z,30.25
2023-09-28T14:43:26.147Z,30.62
2023-09-28T14:47:27.136Z,31.68
2023-09-28T14:51:31.056Z,32.06
2023-09-28T14:55:31.508Z,32.64
2023-09-28T14:59:31.805Z,32.15
2023-09-28T15:03:32.645Z,31.30
2023-09-28T15:07:35.594Z,33.29
2023-09-28T15:11:35.901Z,34.68
2023-09-28T15:15:37.090Z,34.48
2023-09-28T15:19:37.793Z,34.29
2023-09-28T15:23:40.977Z,34.15
2023-09-28T15:27:43.457Z,34.32
2023-09-28T15:31:44.892Z,35.36
2023-09-28T15:35:49.617Z,35.85
2023-09-28T15:39:52.694Z,35.07
2023-09-28T15:43:53.202Z,35.23
2023-09-28T15:47:54.035Z,36.32
2023-09-28T15:51:54.485Z,36.78
2023-09-28T15:55:57.329Z,37.72
2023-09-28T15:59:58.438Z,38.08
2023-09-28T16:03:59.012Z,39.34
2023-09-28T16:08:00.393Z,40.32
2023-09-28T16:12:03.600Z,41.25
2023-09-28T16:16:04.924Z,42.07
2023-09-28T16:20:05.378Z,43.28
2023-09-28T16:24:05.775Z,45.14
2023-09-28T16:28:09.975Z,45.74
2023-09-28T16:32:10.380Z,45.85
2023-09-28T16:36:11.167Z,46.28
2023-09-28T16:40:13.130Z,46.62
2023-09-28T16:44:16.140Z,47.42
2023-09-28T16:48:17.308Z,48.16
2023-09-28T16:52:17.714Z,48.91
2023-09-28T16:56:18.036Z,50.41
2023-09-28T17:00:21.734Z,50.90
2023-09-28T17:04:22.171Z,51.94
2023-09-28T17:08:22.708Z,52.36
2023-09-28T17:12:33.623Z,53.24
2023-09-28T17:16:44.461Z,53.82
2023-09-28T17:20:44.960Z,54.45
2023-09-28T17:24:45.320Z,55.82
2023-09-28T17:28:45.703Z,56.23
2023-09-28T17:32:48.873Z,58.14
2023-09-28T17:36:50.880Z,57.95
2023-09-28T17:40:51.464Z,58.92
2023-09-28T17:44:52.407Z,59.50
2023-09-28T17:48:57.083Z,60.59
2023-09-28T17:52:58.125Z,61.42
2023-09-28T17:56:58.525Z,61.16
2023-09-28T18:01:00.010Z,62.52
2023-09-28T18:05:03.149Z,63.39
2023-09-28T18:09:03.689Z,63.25
2023-09-28T18:13:04.767Z,64.19
2023-09-28T18:17:05.082Z,65.21
2023-09-28T18:21:08.034Z,65.70
2023-09-28T18:25:11.061Z,65.63
2023-09-28T18:29:14.875Z,66.14
2023-09-28T18:33:15.294Z,67.05
2023-09-28T18:37:19.537Z,67.36
2023-09-28T18:41:21.601Z,68.51
2023-09-28T18:45:22.282Z,69.66
2023-09-28T18:49:23.775Z,70.55
2023-09-28T18:53:27.164Z,70.72
2023-09-28T18:57:27.541Z,70.59
2023-09-28T19:01:28.406Z,69.98
2023-09-28T19:05:28.974Z,70.12
2023-09-28T19:09:32.617Z,70.99
2023-09-28T19:13:33.046Z,70.95
2023-09-28T19:17:33.564Z,70.67
2023-09-28T19:21:34.051Z,70.83
2023-09-28T19:25:40.509Z,71.41
2023-09-28T19:29:43.978Z,71.59
2023-09-28T19:33:45.220Z,70.87
2023-09-28T19:37:45.995Z,71.62
2023-09-28T19:41:49.375Z,72.52
2023-09-28T19:45:49.879Z,72.03
2023-09-28T19:49:50.511Z,71.56
2023-09-28T19:53:50.827Z,71.51
2023-09-28T19:57:53.867Z,72.20
2023-09-28T20:01:54.184Z,73.25
2023-09-28T20:05:55.138Z,73.24
2023-09-28T20:09:55.758Z,74.28
2023-09-28T20:13:58.583Z,73.53
2023-09-28T20:17:58.857Z,73.88
2023-09-28T20:21:59.955Z,74.05
2023-09-28T20:26:00.730Z,74.11
2023-09-28T20:30:04.107Z,74.29
2023-09-28T20:34:04.509Z,74.46
2023-09-28T20:38:04.980Z,74.63
2023-09-28T20:42:05.516Z,75.13
2023-09-28T20:46:11.104Z,74.86
2023-09-28T20:50:16.132Z,75.85
2023-09-28T20:54:16.635Z,75.78
2023-09-28T20:58:17.237Z,76.00
2023-09-28T21:02:20.068Z,76.08
2023-09-28T21:06:20.360Z,76.44
2023-09-28T21:10:20.692Z,75.80
2023-09-28T21:14:21.129Z,75.84
2023-09-28T21:18:24.109Z,76.19
2023-09-28T21:22:24.947Z,76.07
2023-09-28T21:26:25.265Z,75.69
2023-09-28T21:30:25.677Z,75.91
2023-09-28T21:34:29.012Z,76.06
2023-09-28T21:38:29.336Z,76.04
2023-09-28T21:42:29.615Z,76.41
2023-09-28T21:46:30.043Z,76.94
2023-09-28T21:50:32.894Z,76.55
2023-09-28T21:54:33.234Z,76.37
2023-09-28T21:58:33.463Z,76.28
2023-09-28T22:02:33.721Z,75.48
2023-09-28T22:06:36.593Z,75.77
2023-09-28T22:10:37.519Z,75.90
2023-09-28T22:14:37.941Z,75.44
2023-09-28T22:18:38.392Z,75.93
2023-09-28T22:22:41.445Z,75.70
2023-09-28T22:26:41.829Z,75.65
2023-09-28T22:30:42.387Z,75.69
2023-09-28T22:34:42.720Z,76.18
2023-09-28T22:38:45.783Z,76.62
2023-09-28T22:42:46.319Z,76.61
2023-09-28T22:46:46.677Z,76.10
2023-09-28T22:50:46.933Z,75.53
2023-09-28T22:54:50.074Z,76.22
2023-09-28T22:58:50.447Z,75.52
2023-09-28T23:02:51.084Z,74.82
2023-09-28T23:06:51.663Z,75.38
2023-09-28T23:10:55.954Z,74.64
2023-09-28T23:14:56.660Z,76.43
2023-09-28T23:18:58.089Z,75.33
2023-09-28T23:22:59.040Z,75.55
2023-09-28T23:27:01.991Z,76.09
2023-09-28T23:31:03.825Z,76.85
2023-09-28T23:35:05.597Z,75.68
2023-09-28T23:39:08.377Z,74.47
2023-09-28T23:43:12.340Z,74.60
2023-09-28T23:47:12.570Z,74.79
2023-09-28T23:51:14.449Z,75.15
2023-09-28T23:55:16.728Z,75.11
2023-09-28T23:59:20.122Z,75.14
